Terminal Aerodrome Forecast
Issued by NWS

Home | Current Version | Previous Version | Graphics & Text | Print | Product List | Glossary On
Versions: 1 2 3 4 5 6 7 8 9 10 11 12 13 14 15 16 17 18 19 20
000
FTUS43 KMPX 140500
TAFAXN
TAF
KAXN 140528Z 1406/1506 35014G21KT P6SM FEW250
     FM141200 35012G19KT P6SM SCT250
     FM141900 34016G24KT P6SM BKN060
     FM150100 33012KT P6SM SCT060=

USA.gov is the U.S. government's official web portal to all federal, state and local government web resources and services.